Kuwait, Kuwait

10:27 PM AST on August 27, 2014 (GMT +0300)
Kuwait International | Change Station
CLOSE
Current Station
Airport
Location: Kuwait,
Elevation: 180 ft
Nearby Weather Stations

Elev 180 ft 29.22 °N, 47.98 °E | Updated 27 minutes ago

Clear
Clear
90 °F
Feels Like 91 °F
N
6
Wind Variable Wind from South

Today
High -- | Low -- °F
--% Chance of Precip.
Yesterday
High -- | Low -- °F
Precip. -- in
5:22 AM 6:15 PM
Waxing Crescent, 4% visible
Pressure 29.53 in
Visibility 3.7 miles
Clouds
Heat Index 91 °F
Dew Point 64 °F
Humidity 43%
Rainfall 0.00 in
Snow Depth Not available.
UV Not available.
Pollen Not available.
Air Quality Not available.
Flu Activity Not available.
METAR OKBK 271900Z 19005KT 6000 NSC 32/18 Q1000 NOSIG

More Conditions Fewer Conditions

Pressure 29.53 in
Visibility 3.7 miles
Clouds
Heat Index 91 °F
Dew Point 64 °F
Humidity 43%
Rainfall 0.00 in
Snow Depth Not available.
UV Not available.
Pollen Not available.
Air Quality Not available.
Flu Activity Not available.
METAR OKBK 271900Z 19005KT 6000 NSC 32/18 Q1000 NOSIG

More Conditions Fewer Conditions

10-Day Weather Forecast

Almanac

Astronomy

Aug. 27, 2014 Rise Set
Actual Time 5:22 AM AST 6:15 PM AST
Civil Twilight 4:58 AM AST 6:40 PM AST
Nautical Twilight 4:29 AM AST 7:09 PM AST
Astronomical Twilight 4:00 AM AST 7:38 PM AST
Moon 6:47 AM AST 7:09 PM AST
Length of Visible Light 13h 41m
Length of Day
12h 53m
Tomorrow will be 1m 39s shorter.
Waxing Crescent, 4% of the Moon is Illuminated
Today
Waxing Crescent
Sep 2
First Quarter
Sep 8
Full
Sep 15
Last Quarter
Sep 24
New

Today's Extremes

Country Highs Country Lows

Community

WunderPhotos

Upload Photos

1,747,761 photos uploaded!

Nearby

Snow Depth

Not available.

Earthquake Activity

City Distance Mag. Time & Date
No recent earthquake activity has been reported nearby.
Minimum magnitude displayed is 2.5.

Coastal Water Temperatures

Place Temperature
No Stations Reporting

Nearby Weather Stations